createdAt,value
2019-03-02T00:02:12.834Z,98423.00
2019-03-02T00:04:41.949Z,98424.00
2019-03-02T00:07:11.235Z,98417.00
2019-03-02T00:09:38.153Z,98417.00
2019-03-02T00:12:05.460Z,98425.00
2019-03-02T00:14:32.690Z,98423.00
2019-03-02T00:16:59.841Z,98431.00
2019-03-02T00:19:27.090Z,98432.00
2019-03-02T00:21:54.191Z,98438.00
2019-03-02T00:24:21.351Z,98436.00
2019-03-02T00:26:48.579Z,98439.00
2019-03-02T00:29:15.971Z,98440.00
2019-03-02T00:31:43.130Z,98438.00
2019-03-02T00:34:10.331Z,98440.00
2019-03-02T00:36:37.571Z,98441.00
2019-03-02T00:39:06.211Z,98443.00
2019-03-02T00:41:33.811Z,98439.00
2019-03-02T00:44:03.839Z,98439.00
2019-03-02T00:46:30.151Z,98449.00
2019-03-02T00:48:57.311Z,98449.00
2019-03-02T00:51:24.478Z,98446.00
2019-03-02T00:53:51.593Z,98439.00
2019-03-02T00:56:18.711Z,98451.00
2019-03-02T00:58:45.873Z,98451.00
2019-03-02T01:01:13.011Z,98455.00
2019-03-02T01:03:40.297Z,98462.00
2019-03-02T01:06:09.109Z,98454.00
2019-03-02T01:08:36.971Z,98459.00
2019-03-02T01:11:04.330Z,98454.00
2019-03-02T01:13:31.850Z,98460.00
2019-03-02T01:15:58.968Z,98458.00
2019-03-02T01:18:26.129Z,98465.00
2019-03-02T01:20:53.230Z,98457.00
2019-03-02T01:23:23.859Z,98458.00
2019-03-02T01:25:49.753Z,98458.00
2019-03-02T01:28:17.071Z,98457.00
2019-03-02T01:30:44.250Z,98459.00
2019-03-02T01:33:11.352Z,98455.00
2019-03-02T01:35:38.431Z,98460.00
2019-03-02T01:38:05.752Z,98466.00
2019-03-02T01:40:33.118Z,98469.00
2019-03-02T01:43:01.971Z,98472.00
2019-03-02T01:45:29.211Z,98474.00
2019-03-02T01:47:56.390Z,98469.00
2019-03-02T01:50:23.591Z,98462.00
2019-03-02T01:52:50.690Z,98474.00
2019-03-02T01:55:17.853Z,98475.00
2019-03-02T01:57:45.010Z,98477.00
2019-03-02T02:00:23.891Z,98474.00
2019-03-02T02:02:51.070Z,98472.00
2019-03-02T02:05:18.211Z,98471.00
2019-03-02T02:07:45.390Z,98473.00
2019-03-02T02:10:14.251Z,98463.00
2019-03-02T02:12:41.451Z,98462.00
2019-03-02T02:15:13.029Z,98458.00
2019-03-02T02:17:40.612Z,98464.00
2019-03-02T02:20:14.621Z,98453.00
2019-03-02T02:22:40.370Z,98463.00
2019-03-02T02:25:11.399Z,98459.00
2019-03-02T02:27:38.583Z,98454.00
2019-03-02T02:30:24.433Z,98452.00
2019-03-02T02:32:48.110Z,98455.00
2019-03-02T02:35:15.509Z,98457.00
2019-03-02T02:37:43.124Z,98458.00
2019-03-02T02:40:12.469Z,98457.00
2019-03-02T02:42:43.421Z,98463.00
2019-03-02T02:45:15.160Z,98457.00
2019-03-02T02:47:50.823Z,98462.00
2019-03-02T02:50:29.382Z,98461.00
2019-03-02T02:52:53.460Z,98464.00
2019-03-02T02:55:20.539Z,98454.00
2019-03-02T02:58:12.524Z,98455.00
2019-03-02T03:00:36.554Z,98457.00
2019-03-02T03:03:03.928Z,98451.00
2019-03-02T03:05:31.030Z,98448.00
2019-03-02T03:07:58.204Z,98451.00
2019-03-02T03:10:36.452Z,98458.00
2019-03-02T03:13:04.462Z,98453.00
2019-03-02T03:15:38.524Z,98458.00
2019-03-02T03:18:07.242Z,98455.00
2019-03-02T03:20:34.421Z,98449.00
2019-03-02T03:23:01.522Z,98447.00
2019-03-02T03:25:28.610Z,98458.00
2019-03-02T03:27:55.772Z,98453.00
2019-03-02T03:30:33.736Z,98462.00
2019-03-02T03:32:55.947Z,98463.00
2019-03-02T03:35:21.349Z,98458.00
2019-03-02T03:37:51.381Z,98467.00
2019-03-02T03:40:20.258Z,98462.00
2019-03-02T03:42:46.926Z,98463.00
2019-03-02T03:45:15.336Z,98459.00
2019-03-02T03:47:42.491Z,98458.00
2019-03-02T03:50:13.883Z,98456.00
2019-03-02T03:52:44.025Z,98463.00
2019-03-02T03:55:10.527Z,98464.00
2019-03-02T03:57:37.645Z,98460.00
2019-03-02T04:00:11.709Z,98462.00
2019-03-02T04:02:39.315Z,98469.00
2019-03-02T04:05:08.553Z,98468.00
2019-03-02T04:07:36.223Z,98463.00
2019-03-02T04:10:07.175Z,98459.00
2019-03-02T04:12:34.533Z,98466.00
2019-03-02T04:15:03.098Z,98468.00
2019-03-02T04:17:34.194Z,98475.00
2019-03-02T04:19:59.507Z,98467.00
2019-03-02T04:22:26.684Z,98463.00
2019-03-02T04:24:53.728Z,98462.00
2019-03-02T04:27:20.846Z,98465.00
2019-03-02T04:29:50.466Z,98468.00
2019-03-02T04:32:16.954Z,98467.00
2019-03-02T04:34:44.055Z,98468.00
2019-03-02T04:37:11.435Z,98469.00
2019-03-02T04:39:38.734Z,98475.00
2019-03-02T04:42:05.835Z,98480.00
2019-03-02T04:44:32.956Z,98486.00
2019-03-02T04:47:00.097Z,98478.00
2019-03-02T04:49:27.247Z,98482.00
2019-03-02T04:51:54.328Z,98481.00
2019-03-02T04:54:21.414Z,98481.00
2019-03-02T04:56:48.494Z,98483.00
2019-03-02T04:59:18.614Z,98479.00
2019-03-02T05:01:46.226Z,98479.00
2019-03-02T05:04:13.695Z,98477.00
2019-03-02T05:06:41.026Z,98485.00
2019-03-02T05:09:08.194Z,98482.00
2019-03-02T05:11:39.297Z,98479.00
2019-03-02T05:14:05.535Z,98492.00
2019-03-02T05:16:32.754Z,98477.00
2019-03-02T05:18:59.949Z,98477.00
2019-03-02T05:21:27.134Z,98481.00
2019-03-02T05:23:54.294Z,98481.00
2019-03-02T05:26:21.395Z,98491.00
2019-03-02T05:28:48.554Z,98485.00
2019-03-02T05:31:15.747Z,98493.00
2019-03-02T05:33:42.913Z,98499.00
2019-03-02T05:36:10.046Z,98482.00
2019-03-02T05:38:37.234Z,98492.00
2019-03-02T05:41:04.594Z,98491.00
2019-03-02T05:43:31.687Z,98502.00
2019-03-02T05:45:58.935Z,98503.00
2019-03-02T05:48:26.055Z,98506.00
2019-03-02T05:50:53.207Z,98499.00
2019-03-02T05:53:20.269Z,98510.00
2019-03-02T05:55:49.950Z,98507.00
2019-03-02T05:58:17.148Z,98509.00
2019-03-02T06:00:44.348Z,98510.00
2019-03-02T06:03:11.507Z,98515.00
2019-03-02T06:05:38.668Z,98520.00
2019-03-02T06:08:05.788Z,98517.00
2019-03-02T06:10:32.947Z,98510.00
2019-03-02T06:13:00.087Z,98515.00
2019-03-02T06:15:28.810Z,98516.00
2019-03-02T06:17:56.127Z,98522.00
2019-03-02T06:20:23.288Z,98522.00
2019-03-02T06:22:52.296Z,98530.00
2019-03-02T06:25:21.427Z,98531.00
2019-03-02T06:27:49.137Z,98542.00
2019-03-02T06:30:25.088Z,98553.00
2019-03-02T06:32:52.169Z,98546.00
2019-03-02T06:35:19.268Z,98542.00
2019-03-02T06:37:46.470Z,98549.00
2019-03-02T06:40:16.055Z,98541.00
2019-03-02T06:42:45.830Z,98546.00
2019-03-02T06:45:20.092Z,98549.00
2019-03-02T06:47:47.747Z,98551.00
2019-03-02T06:50:18.887Z,98556.00
2019-03-02T06:52:46.077Z,98542.00
2019-03-02T06:55:16.073Z,98554.00
2019-03-02T06:57:46.211Z,98544.00
2019-03-02T07:00:20.591Z,98554.00
2019-03-02T07:02:47.948Z,98558.00
2019-03-02T07:05:15.408Z,98560.00
2019-03-02T07:07:42.567Z,98567.00
2019-03-02T07:10:13.608Z,98563.00
2019-03-02T07:12:41.739Z,98567.00
2019-03-02T07:15:13.280Z,98566.00
2019-03-02T07:18:01.907Z,98557.00
2019-03-02T07:20:29.555Z,98568.00
2019-03-02T07:22:56.727Z,98571.00
2019-03-02T07:25:23.887Z,98577.00
2019-03-02T07:27:51.001Z,98578.00
2019-03-02T07:30:18.135Z,98581.00
2019-03-02T07:32:45.274Z,98577.00
2019-03-02T07:35:12.417Z,98587.00
2019-03-02T07:37:40.668Z,98580.00
2019-03-02T07:40:11.521Z,98584.00
2019-03-02T07:42:38.735Z,98589.00
2019-03-02T07:45:11.126Z,98585.00
2019-03-02T07:47:38.208Z,98591.00
2019-03-02T07:50:08.487Z,98585.00
2019-03-02T07:52:35.648Z,98596.00
2019-03-02T07:55:05.077Z,98598.00
2019-03-02T07:57:32.207Z,98597.00
2019-03-02T08:00:02.065Z,98596.00
2019-03-02T08:02:29.631Z,98592.00
2019-03-02T08:04:57.447Z,98591.00
2019-03-02T08:07:24.489Z,98596.00
2019-03-02T08:09:51.727Z,98592.00
2019-03-02T08:12:20.820Z,98598.00
2019-03-02T08:14:48.746Z,98595.00
2019-03-02T08:17:15.886Z,98599.00
2019-03-02T08:19:44.706Z,98596.00
2019-03-02T08:22:12.094Z,98596.00
2019-03-02T08:24:40.309Z,98604.00
2019-03-02T08:27:10.290Z,98603.00
2019-03-02T08:29:37.287Z,98593.00
2019-03-02T08:32:04.347Z,98599.00
2019-03-02T08:34:31.526Z,98602.00
2019-03-02T08:36:58.646Z,98597.00
2019-03-02T08:39:25.787Z,98600.00
2019-03-02T08:41:53.101Z,98597.00
2019-03-02T08:44:20.322Z,98597.00
2019-03-02T08:46:47.466Z,98599.00
2019-03-02T08:49:14.608Z,98591.00
2019-03-02T08:51:41.768Z,98590.00
2019-03-02T08:54:08.907Z,98599.00
2019-03-02T08:56:36.011Z,98597.00
2019-03-02T08:59:03.306Z,98593.00
2019-03-02T09:01:30.509Z,98591.00
2019-03-02T09:03:57.605Z,98593.00
2019-03-02T09:06:24.763Z,98590.00
2019-03-02T09:08:51.890Z,98587.00
2019-03-02T09:11:19.087Z,98591.00
2019-03-02T09:13:46.187Z,98585.00
2019-03-02T09:16:13.367Z,98585.00
2019-03-02T09:18:45.378Z,98591.00
2019-03-02T09:21:12.397Z,98597.00
2019-03-02T09:23:38.587Z,98595.00
2019-03-02T09:26:05.665Z,98593.00
2019-03-02T09:28:32.798Z,98596.00
2019-03-02T09:31:02.071Z,98587.00
2019-03-02T09:33:29.940Z,98588.00
2019-03-02T09:35:57.826Z,98597.00
2019-03-02T09:38:24.992Z,98594.00
2019-03-02T09:40:52.141Z,98598.00
2019-03-02T09:43:19.491Z,98596.00
2019-03-02T09:45:48.054Z,98601.00
2019-03-02T09:48:15.573Z,98599.00
2019-03-02T09:50:42.752Z,98604.00
2019-03-02T09:53:09.817Z,98598.00
2019-03-02T09:55:36.911Z,98598.00
2019-03-02T09:58:04.138Z,98607.00
2019-03-02T10:00:32.992Z,98607.00
2019-03-02T10:03:00.132Z,98605.00
2019-03-02T10:05:27.251Z,98608.00
2019-03-02T10:07:54.394Z,98606.00
2019-03-02T10:10:25.224Z,98613.00
2019-03-02T10:12:53.127Z,98622.00
2019-03-02T10:15:31.370Z,98617.00
2019-03-02T10:17:58.490Z,98623.00
2019-03-02T10:20:25.618Z,98625.00
2019-03-02T10:22:52.795Z,98626.00
2019-03-02T10:25:19.891Z,98630.00
2019-03-02T10:27:47.232Z,98635.00
2019-03-02T10:30:25.906Z,98647.00
2019-03-02T10:32:55.665Z,98644.00
2019-03-02T10:35:21.419Z,98644.00
2019-03-02T10:37:48.751Z,98644.00
2019-03-02T10:40:19.914Z,98647.00
2019-03-02T10:42:47.172Z,98649.00
2019-03-02T10:45:19.334Z,98651.00
2019-03-02T10:47:46.574Z,98654.00
2019-03-02T10:50:26.804Z,98640.00
2019-03-02T10:52:53.984Z,98638.00
2019-03-02T10:55:22.846Z,98642.00
2019-03-02T10:57:50.799Z,98642.00
2019-03-02T11:00:25.629Z,98637.00
2019-03-02T11:02:57.443Z,98643.00
2019-03-02T11:05:29.132Z,98643.00
2019-03-02T11:07:58.053Z,98636.00
2019-03-02T11:10:27.032Z,98646.00
2019-03-02T11:13:04.692Z,98644.00
2019-03-02T11:15:33.585Z,98651.00
2019-03-02T11:18:26.411Z,98639.00
2019-03-02T11:20:58.926Z,98648.00
2019-03-02T11:23:31.759Z,98638.00
2019-03-02T11:26:18.726Z,98642.00
2019-03-02T11:28:47.798Z,98636.00
2019-03-02T11:31:25.558Z,98625.00
2019-03-02T11:33:57.458Z,98618.00
2019-03-02T11:36:41.725Z,98611.00
2019-03-02T11:39:19.939Z,98604.00
2019-03-02T11:41:54.977Z,98615.00
2019-03-02T11:44:38.958Z,98614.00
2019-03-02T11:47:08.119Z,98619.00
2019-03-02T11:49:42.838Z,98614.00
2019-03-02T11:52:14.514Z,98614.00
2019-03-02T11:54:43.407Z,98614.00
2019-03-02T11:57:12.359Z,98621.00
2019-03-02T11:59:59.719Z,98620.00
2019-03-02T12:02:43.929Z,98624.00
2019-03-02T12:05:18.650Z,98620.00
2019-03-02T12:07:56.397Z,98614.00
2019-03-02T12:10:30.225Z,98619.00
2019-03-02T12:13:03.726Z,98620.00
2019-03-02T12:15:35.785Z,98613.00
2019-03-02T12:18:21.703Z,98601.00
2019-03-02T12:21:07.683Z,98604.00
2019-03-02T12:23:51.767Z,98603.00
2019-03-02T12:26:26.753Z,98598.00
2019-03-02T12:28:58.844Z,98583.00
2019-03-02T12:31:28.105Z,98590.00
2019-03-02T12:33:58.758Z,98587.00
2019-03-02T12:36:30.382Z,98589.00
2019-03-02T12:38:59.409Z,98587.00
2019-03-02T12:41:37.270Z,98585.00
2019-03-02T12:44:09.309Z,98591.00
2019-03-02T12:46:47.942Z,98582.00
2019-03-02T12:49:35.065Z,98587.00
2019-03-02T12:52:16.633Z,98585.00
2019-03-02T12:54:59.060Z,98578.00
2019-03-02T12:57:30.675Z,98585.00
2019-03-02T13:00:02.530Z,98572.00
2019-03-02T13:02:34.470Z,98576.00
2019-03-02T13:05:06.278Z,98573.00
2019-03-02T13:07:54.726Z,98580.00
2019-03-02T13:10:29.518Z,98579.00
2019-03-02T13:13:10.559Z,98579.00
2019-03-02T13:15:48.374Z,98574.00
2019-03-02T13:18:25.315Z,98576.00
2019-03-02T13:21:00.963Z,98564.00
2019-03-02T13:23:39.018Z,98573.00
2019-03-02T13:26:15.331Z,98581.00
2019-03-02T13:28:46.730Z,98589.00
2019-03-02T13:31:18.693Z,98583.00
2019-03-02T13:34:03.751Z,98582.00
2019-03-02T13:36:32.712Z,98578.00
2019-03-02T13:39:13.943Z,98578.00
2019-03-02T13:41:47.909Z,98580.00
2019-03-02T13:44:16.930Z,98582.00
2019-03-02T13:46:51.570Z,98580.00
2019-03-02T13:49:20.430Z,98573.00
2019-03-02T13:52:07.516Z,98585.00
2019-03-02T13:54:37.330Z,98580.00
2019-03-02T13:57:14.751Z,98594.00
2019-03-02T13:59:43.630Z,98582.00
2019-03-02T14:02:12.592Z,98578.00
2019-03-02T14:04:47.752Z,98582.00
2019-03-02T14:07:51.732Z,98583.00
2019-03-02T14:10:38.568Z,98584.00
2019-03-02T14:13:16.286Z,98579.00
2019-03-02T14:15:45.204Z,98573.00
2019-03-02T14:18:17.575Z,98579.00
2019-03-02T14:21:02.519Z,98583.00
2019-03-02T14:23:34.493Z,98584.00
2019-03-02T14:26:03.334Z,98591.00
2019-03-02T14:28:50.637Z,98583.00
2019-03-02T14:31:20.485Z,98588.00
2019-03-02T14:34:07.172Z,98587.00
2019-03-02T14:36:37.163Z,98597.00
2019-03-02T14:39:08.319Z,98602.00
2019-03-02T14:41:37.302Z,98594.00
2019-03-02T14:44:11.999Z,98594.00
2019-03-02T14:46:43.628Z,98597.00
2019-03-02T14:49:15.431Z,98598.00
2019-03-02T14:51:44.481Z,98585.00
2019-03-02T14:54:13.371Z,98590.00
2019-03-02T14:56:44.865Z,98579.00
2019-03-02T14:59:29.714Z,98588.00
2019-03-02T15:02:16.629Z,98584.00
2019-03-02T15:04:56.504Z,98585.00
2019-03-02T15:07:34.432Z,98588.00
2019-03-02T15:10:09.206Z,98586.00
2019-03-02T15:12:54.803Z,98591.00
2019-03-02T15:15:40.551Z,98585.00
2019-03-02T15:18:10.674Z,98594.00
2019-03-02T15:20:39.789Z,98582.00
2019-03-02T15:23:08.742Z,98585.00
2019-03-02T15:25:42.071Z,98585.00
2019-03-02T15:28:11.524Z,98584.00
2019-03-02T15:30:49.608Z,98585.00
2019-03-02T15:33:30.327Z,98591.00
2019-03-02T15:35:58.695Z,98592.00
2019-03-02T15:38:46.145Z,98595.00
2019-03-02T15:41:15.089Z,98597.00
2019-03-02T15:44:02.008Z,98595.00
2019-03-02T15:46:39.552Z,98590.00
2019-03-02T15:49:14.722Z,98593.00
2019-03-02T15:51:46.351Z,98591.00
2019-03-02T15:54:33.159Z,98589.00
2019-03-02T15:57:14.237Z,98598.00
2019-03-02T16:00:05.860Z,98605.00
2019-03-02T16:02:53.244Z,98606.00
2019-03-02T16:05:24.659Z,98597.00
2019-03-02T16:07:56.663Z,98601.00
2019-03-02T16:10:25.514Z,98606.00
2019-03-02T16:12:54.847Z,98601.00
2019-03-02T16:15:26.607Z,98604.00
2019-03-02T16:18:01.558Z,98601.00
2019-03-02T16:20:42.533Z,98604.00
2019-03-02T16:23:25.594Z,98605.00
2019-03-02T16:26:00.356Z,98607.00
2019-03-02T16:28:32.179Z,98608.00
2019-03-02T16:31:09.859Z,98613.00
2019-03-02T16:33:50.749Z,98607.00
2019-03-02T16:36:19.810Z,98605.00
2019-03-02T16:39:06.792Z,98601.00
2019-03-02T16:41:44.932Z,98603.00
2019-03-02T16:44:19.890Z,98591.00
2019-03-02T16:47:05.271Z,98605.00
2019-03-02T16:49:36.891Z,98608.00
2019-03-02T16:52:10.081Z,98598.00
2019-03-02T16:54:56.802Z,98607.00
2019-03-02T16:57:30.393Z,98607.00
2019-03-02T17:00:10.109Z,98608.00
2019-03-02T17:02:54.147Z,98608.00
2019-03-02T17:05:28.393Z,98609.00
2019-03-02T17:07:58.666Z,98620.00
2019-03-02T17:10:27.978Z,98631.00
2019-03-02T17:13:11.870Z,98626.00
2019-03-02T17:15:58.837Z,98622.00
2019-03-02T17:18:28.311Z,98636.00
2019-03-02T17:21:00.251Z,98636.00
2019-03-02T17:23:42.170Z,98631.00
2019-03-02T17:26:21.311Z,98636.00
2019-03-02T17:28:55.913Z,98639.00
2019-03-02T17:31:24.972Z,98640.00
2019-03-02T17:34:11.040Z,98630.00
2019-03-02T17:36:48.993Z,98635.00
2019-03-02T17:39:27.915Z,98640.00
2019-03-02T17:42:03.078Z,98641.00
2019-03-02T17:44:32.033Z,98648.00
2019-03-02T17:47:07.071Z,98650.00
2019-03-02T17:49:34.688Z,98651.00
2019-03-02T17:55:07.634Z,98654.00
2019-03-02T17:57:37.850Z,98656.00
2019-03-02T18:00:28.854Z,98653.00
2019-03-02T18:03:00.272Z,98657.00
2019-03-02T18:05:43.919Z,98645.00
2019-03-02T18:08:13.419Z,98643.00
2019-03-02T18:10:55.127Z,98643.00
2019-03-02T18:13:35.257Z,98651.00
2019-03-02T18:16:00.343Z,98644.00
2019-03-02T18:18:28.030Z,98641.00
2019-03-02T18:20:57.150Z,98644.00
2019-03-02T18:23:24.589Z,98644.00
2019-03-02T18:25:51.948Z,98656.00
2019-03-02T18:28:19.048Z,98647.00
2019-03-02T18:30:46.187Z,98645.00
2019-03-02T18:33:15.587Z,98643.00
2019-03-02T18:35:42.747Z,98642.00
2019-03-02T18:38:12.623Z,98639.00
2019-03-02T18:40:40.260Z,98652.00
2019-03-02T18:43:08.163Z,98648.00
2019-03-02T18:45:39.580Z,98644.00
2019-03-02T18:48:07.603Z,98650.00
2019-03-02T18:50:36.547Z,98641.00
2019-03-02T18:53:03.689Z,98640.00
2019-03-02T18:55:30.828Z,98633.00
2019-03-02T18:57:58.508Z,98636.00
2019-03-02T19:00:27.548Z,98652.00
2019-03-02T19:02:54.686Z,98656.00
2019-03-02T19:05:30.895Z,98655.00
2019-03-02T19:07:59.607Z,98658.00
2019-03-02T19:10:26.987Z,98660.00
2019-03-02T19:12:54.087Z,98658.00
2019-03-02T19:15:22.121Z,98658.00
2019-03-02T19:17:49.436Z,98649.00
2019-03-02T19:20:16.656Z,98659.00
2019-03-02T19:22:44.227Z,98649.00
2019-03-02T19:25:12.969Z,98652.00
2019-03-02T19:27:40.516Z,98653.00
2019-03-02T19:30:17.111Z,98656.00
2019-03-02T19:32:44.343Z,98650.00
2019-03-02T19:35:11.698Z,98642.00
2019-03-02T19:37:40.701Z,98649.00
2019-03-02T19:40:18.682Z,98643.00
2019-03-02T19:42:45.905Z,98639.00
2019-03-02T19:45:13.388Z,98649.00
2019-03-02T19:47:40.488Z,98651.00
2019-03-02T19:50:11.882Z,98651.00
2019-03-02T19:52:39.400Z,98649.00
2019-03-02T19:55:10.100Z,98644.00
2019-03-02T19:57:37.263Z,98653.00
2019-03-02T20:00:21.228Z,98656.00
2019-03-02T20:02:48.370Z,98675.00
2019-03-02T20:05:15.523Z,98696.00
2019-03-02T20:07:42.808Z,98693.00
2019-03-02T20:10:13.249Z,98685.00
2019-03-02T20:12:40.441Z,98683.00
2019-03-02T20:15:12.234Z,98683.00
2019-03-02T20:17:39.447Z,98681.00
2019-03-02T20:20:15.550Z,98682.00
2019-03-02T20:22:42.660Z,98673.00
2019-03-02T20:25:17.522Z,98679.00
2019-03-02T20:27:44.639Z,98685.00
2019-03-02T20:30:20.759Z,98686.00
2019-03-02T20:32:48.120Z,98689.00
2019-03-02T20:35:24.961Z,98683.00
2019-03-02T20:37:52.198Z,98682.00
2019-03-02T20:40:28.588Z,98682.00
2019-03-02T20:42:55.703Z,98684.00
2019-03-02T20:45:22.794Z,98680.00
2019-03-02T20:47:49.840Z,98683.00
2019-03-02T20:50:21.227Z,98687.00
2019-03-02T20:52:48.388Z,98684.00
2019-03-02T20:55:16.728Z,98686.00
2019-03-02T20:57:45.327Z,98692.00
2019-03-02T21:00:28.307Z,98689.00
2019-03-02T21:02:56.599Z,98688.00
2019-03-02T21:05:25.287Z,98687.00
2019-03-02T21:07:53.306Z,98684.00
2019-03-02T21:10:28.239Z,98684.00
2019-03-02T21:12:55.367Z,98684.00
2019-03-02T21:15:31.717Z,98686.00
2019-03-02T21:17:58.839Z,98681.00
2019-03-02T21:20:26.259Z,98676.00
2019-03-02T21:22:53.407Z,98683.00
2019-03-02T21:25:20.479Z,98681.00
2019-03-02T21:27:47.629Z,98680.00
2019-03-02T21:30:19.060Z,98672.00
2019-03-02T21:32:46.693Z,98682.00
2019-03-02T21:35:15.319Z,98682.00
2019-03-02T21:37:44.419Z,98681.00
2019-03-02T21:40:27.327Z,98679.00
2019-03-02T21:42:54.747Z,98681.00
2019-03-02T21:45:30.342Z,98672.00
2019-03-02T21:47:57.679Z,98682.00
2019-03-02T21:50:42.490Z,98681.00
2019-03-02T21:53:09.687Z,98682.00
2019-03-02T21:55:36.960Z,98691.00
2019-03-02T21:58:04.556Z,98689.00
2019-03-02T22:00:32.276Z,98681.00
2019-03-02T22:02:59.555Z,98691.00
2019-03-02T22:05:27.014Z,98686.00
2019-03-02T22:07:54.175Z,98689.00
2019-03-02T22:10:49.247Z,98680.00
2019-03-02T22:13:16.459Z,98687.00
2019-03-02T22:15:43.574Z,98678.00
2019-03-02T22:18:10.716Z,98683.00
2019-03-02T22:20:37.934Z,98672.00
2019-03-02T22:23:05.106Z,98671.00
2019-03-02T22:25:32.254Z,98687.00
2019-03-02T22:27:59.418Z,98684.00
2019-03-02T22:30:27.706Z,98683.00
2019-03-02T22:32:54.870Z,98683.00
2019-03-02T22:35:41.706Z,98682.00
2019-03-02T22:38:08.832Z,98686.00
2019-03-02T22:40:36.025Z,98680.00
2019-03-02T22:43:03.157Z,98676.00
2019-03-02T22:45:30.426Z,98671.00
2019-03-02T22:47:57.592Z,98671.00
2019-03-02T22:50:32.305Z,98665.00
2019-03-02T22:52:59.847Z,98672.00
2019-03-02T22:55:27.059Z,98662.00
2019-03-02T22:57:54.367Z,98665.00
2019-03-02T23:00:45.328Z,98668.00
2019-03-02T23:03:11.786Z,98666.00
2019-03-02T23:05:38.969Z,98652.00
2019-03-02T23:08:06.369Z,98658.00
2019-03-02T23:10:33.466Z,98655.00
2019-03-02T23:13:00.608Z,98660.00
2019-03-02T23:15:27.850Z,98654.00
2019-03-02T23:17:54.929Z,98659.00
2019-03-02T23:20:22.041Z,98662.00
2019-03-02T23:22:49.300Z,98650.00
2019-03-02T23:25:16.593Z,98657.00
2019-03-02T23:27:44.014Z,98656.00
2019-03-02T23:30:19.253Z,98651.00
2019-03-02T23:32:46.526Z,98650.00
2019-03-02T23:35:14.129Z,98648.00
2019-03-02T23:37:41.387Z,98648.00
2019-03-02T23:40:14.568Z,98643.00
2019-03-02T23:42:41.769Z,98642.00
2019-03-02T23:45:14.448Z,98645.00
2019-03-02T23:47:41.810Z,98645.00
2019-03-02T23:50:10.708Z,98651.00
2019-03-02T23:52:38.290Z,98647.00
2019-03-02T23:55:08.949Z,98650.00
2019-03-02T23:57:55.848Z,98653.00
